Allenstown, New Hampshire
Current Conditions -  °F | °C
As of 1:51 PM on Monday 20 Oct 2014 (Local Time) from KCON Reporting Station
Clear Clear  
Wind Chill: 53°   Ceiling: Unl
Heat Index: 53°   Visibility: 10mi
Dew Point: 29°   Wind: 7mph
Humidity: 40%   Direction: 220°SW
Pressure: 29.95"   Gusts: NA
Location:  43.1606°N, 71.4143°W
Report Text: KCON 201751Z AUTO 22006KT 10SM CLR 12/M02 A2995 RMK AO2 SLP145 T01171017 10122 20022 58022
Loading
Personal Weather Stations






























Interactive Weather Map New forecast layout! Learn more

10-Day Weather Forecast

Advertisements
Track Severe Weather on mobile